sensor_id;sensor_type;location;lat;lon;timestamp;pressure;altitude;pressure_sealevel;temperature;humidity
42591;BME280;28218;53.342;-6.216;2023-04-15T00:00:38;101396.03;;;8.81;100.00
42591;BME280;28218;53.342;-6.216;2023-04-15T00:03:06;101399.34;;;8.83;100.00
42591;BME280;28218;53.342;-6.216;2023-04-15T00:05:35;101403.09;;;8.81;100.00
42591;BME280;28218;53.342;-6.216;2023-04-15T00:08:04;101406.13;;;8.76;100.00
42591;BME280;28218;53.342;-6.216;2023-04-15T00:10:33;101405.44;;;8.74;100.00
42591;BME280;28218;53.342;-6.216;2023-04-15T00:13:01;101411.66;;;8.73;100.00
42591;BME280;28218;53.342;-6.216;2023-04-15T00:15:30;101422.03;;;8.75;100.00
42591;BME280;28218;53.342;-6.216;2023-04-15T00:17:58;101433.50;;;8.74;100.00
42591;BME280;28218;53.342;-6.216;2023-04-15T00:20:27;101424.94;;;8.72;100.00
42591;BME280;28218;53.342;-6.216;2023-04-15T00:22:55;101426.75;;;8.71;100.00
42591;BME280;28218;53.342;-6.216;2023-04-15T00:25:23;101431.19;;;8.70;100.00
42591;BME280;28218;53.342;-6.216;2023-04-15T00:27:53;101435.56;;;8.70;100.00
42591;BME280;28218;53.342;-6.216;2023-04-15T00:30:21;101444.44;;;8.69;100.00
42591;BME280;28218;53.342;-6.216;2023-04-15T00:32:50;101441.13;;;8.67;100.00
42591;BME280;28218;53.342;-6.216;2023-04-15T00:35:18;101438.75;;;8.64;100.00
42591;BME280;28218;53.342;-6.216;2023-04-15T00:37:46;101452.16;;;8.61;100.00
42591;BME280;28218;53.342;-6.216;2023-04-15T00:40:17;101437.66;;;8.57;100.00
42591;BME280;28218;53.342;-6.216;2023-04-15T00:42:45;101440.16;;;8.58;100.00
42591;BME280;28218;53.342;-6.216;2023-04-15T00:45:15;101442.09;;;8.56;100.00
42591;BME280;28218;53.342;-6.216;2023-04-15T00:47:44;101445.66;;;8.55;100.00
42591;BME280;28218;53.342;-6.216;2023-04-15T00:50:13;101441.38;;;8.54;100.00
42591;BME280;28218;53.342;-6.216;2023-04-15T00:52:41;101441.53;;;8.53;100.00
42591;BME280;28218;53.342;-6.216;2023-04-15T00:55:09;101444.28;;;8.51;100.00
42591;BME280;28218;53.342;-6.216;2023-04-15T00:57:38;101440.28;;;8.47;100.00
42591;BME280;28218;53.342;-6.216;2023-04-15T01:00:08;101444.00;;;8.44;100.00
42591;BME280;28218;53.342;-6.216;2023-04-15T01:02:39;101438.34;;;8.39;100.00
42591;BME280;28218;53.342;-6.216;2023-04-15T01:05:08;101447.72;;;8.42;100.00
42591;BME280;28218;53.342;-6.216;2023-04-15T01:07:36;101453.38;;;8.37;100.00
42591;BME280;28218;53.342;-6.216;2023-04-15T01:10:05;101456.13;;;8.36;100.00
42591;BME280;28218;53.342;-6.216;2023-04-15T01:12:34;101457.91;;;8.35;100.00
42591;BME280;28218;53.342;-6.216;2023-04-15T01:15:04;101453.91;;;8.31;100.00
42591;BME280;28218;53.342;-6.216;2023-04-15T01:17:32;101464.28;;;8.33;100.00
42591;BME280;28218;53.342;-6.216;2023-04-15T01:20:03;101467.03;;;8.31;100.00
42591;BME280;28218;53.342;-6.216;2023-04-15T01:22:32;101459.28;;;8.30;100.00
42591;BME280;28218;53.342;-6.216;2023-04-15T01:25:05;101461.78;;;8.31;100.00
42591;BME280;28218;53.342;-6.216;2023-04-15T01:27:38;101464.41;;;8.31;100.00
42591;BME280;28218;53.342;-6.216;2023-04-15T01:30:08;101474.34;;;8.28;100.00
42591;BME280;28218;53.342;-6.216;2023-04-15T01:32:37;101479.06;;;8.24;100.00
42591;BME280;28218;53.342;-6.216;2023-04-15T01:35:06;101484.31;;;8.24;100.00
42591;BME280;28218;53.342;-6.216;2023-04-15T01:37:35;101496.72;;;8.22;100.00
42591;BME280;28218;53.342;-6.216;2023-04-15T01:40:04;101492.59;;;8.19;100.00
42591;BME280;28218;53.342;-6.216;2023-04-15T01:42:34;101495.31;;;8.18;100.00
42591;BME280;28218;53.342;-6.216;2023-04-15T01:45:05;101498.91;;;8.17;100.00
42591;BME280;28218;53.342;-6.216;2023-04-15T01:47:34;101503.34;;;8.16;100.00
42591;BME280;28218;53.342;-6.216;2023-04-15T01:50:02;101502.50;;;8.16;100.00
42591;BME280;28218;53.342;-6.216;2023-04-15T01:52:31;101500.84;;;8.15;100.00
42591;BME280;28218;53.342;-6.216;2023-04-15T01:54:59;101508.00;;;8.13;100.00
42591;BME280;28218;53.342;-6.216;2023-04-15T01:57:28;101500.44;;;8.10;100.00
42591;BME280;28218;53.342;-6.216;2023-04-15T01:59:56;101504.97;;;8.08;100.00
42591;BME280;28218;53.342;-6.216;2023-04-15T02:02:26;101513.13;;;8.05;100.00
42591;BME280;28218;53.342;-6.216;2023-04-15T02:04:54;101504.66;;;8.01;100.00
42591;BME280;28218;53.342;-6.216;2023-04-15T02:07:22;101516.00;;;8.02;100.00
42591;BME280;28218;53.342;-6.216;2023-04-15T02:09:51;101522.66;;;8.06;100.00
42591;BME280;28218;53.342;-6.216;2023-04-15T02:12:19;101519.69;;;7.99;100.00
42591;BME280;28218;53.342;-6.216;2023-04-15T02:14:47;101529.38;;;7.99;100.00
42591;BME280;28218;53.342;-6.216;2023-04-15T02:17:16;101526.75;;;7.99;100.00
42591;BME280;28218;53.342;-6.216;2023-04-15T02:19:45;101532.53;;;7.92;100.00
42591;BME280;28218;53.342;-6.216;2023-04-15T02:22:14;101530.47;;;7.96;100.00
42591;BME280;28218;53.342;-6.216;2023-04-15T02:24:44;101533.09;;;7.96;100.00
42591;BME280;28218;53.342;-6.216;2023-04-15T02:27:15;101532.38;;;7.94;100.00
42591;BME280;28218;53.342;-6.216;2023-04-15T02:29:44;101527.28;;;7.92;100.00
42591;BME280;28218;53.342;-6.216;2023-04-15T02:32:12;101532.66;;;7.91;100.00
42591;BME280;28218;53.342;-6.216;2023-04-15T02:34:40;101533.59;;;7.90;100.00
42591;BME280;28218;53.342;-6.216;2023-04-15T02:37:12;101524.91;;;7.89;100.00
42591;BME280;28218;53.342;-6.216;2023-04-15T02:39:40;101530.88;;;7.91;100.00
42591;BME280;28218;53.342;-6.216;2023-04-15T02:42:08;101536.13;;;7.91;100.00
42591;BME280;28218;53.342;-6.216;2023-04-15T02:44:37;101532.66;;;7.91;100.00
42591;BME280;28218;53.342;-6.216;2023-04-15T02:47:05;101537.47;;;7.86;100.00
42591;BME280;28218;53.342;-6.216;2023-04-15T02:49:34;101538.41;;;7.85;100.00
42591;BME280;28218;53.342;-6.216;2023-04-15T02:52:02;101545.75;;;7.81;100.00
42591;BME280;28218;53.342;-6.216;2023-04-15T02:54:33;101548.47;;;7.80;100.00
42591;BME280;28218;53.342;-6.216;2023-04-15T02:57:01;101552.75;;;7.81;100.00
42591;BME280;28218;53.342;-6.216;2023-04-15T02:59:32;101551.00;;;7.81;100.00
42591;BME280;28218;53.342;-6.216;2023-04-15T03:02:00;101554.53;;;7.80;100.00
42591;BME280;28218;53.342;-6.216;2023-04-15T03:04:29;101555.75;;;7.76;100.00
42591;BME280;28218;53.342;-6.216;2023-04-15T03:06:57;101565.44;;;7.76;100.00
42591;BME280;28218;53.342;-6.216;2023-04-15T03:09:26;101565.56;;;7.74;100.00
42591;BME280;28218;53.342;-6.216;2023-04-15T03:11:56;101573.44;;;7.74;100.00
42591;BME280;28218;53.342;-6.216;2023-04-15T03:14:24;101578.00;;;7.72;100.00
42591;BME280;28218;53.342;-6.216;2023-04-15T03:16:52;101578.81;;;7.73;100.00
42591;BME280;28218;53.342;-6.216;2023-04-15T03:19:20;101579.78;;;7.72;100.00
42591;BME280;28218;53.342;-6.216;2023-04-15T03:21:49;101583.50;;;7.69;100.00
42591;BME280;28218;53.342;-6.216;2023-04-15T03:24:17;101593.97;;;7.69;100.00
42591;BME280;28218;53.342;-6.216;2023-04-15T03:26:46;101593.97;;;7.69;100.00
42591;BME280;28218;53.342;-6.216;2023-04-15T03:29:15;101598.25;;;7.70;100.00
42591;BME280;28218;53.342;-6.216;2023-04-15T03:31:43;101596.59;;;7.69;100.00
42591;BME280;28218;53.342;-6.216;2023-04-15T03:34:12;101602.09;;;7.66;100.00
42591;BME280;28218;53.342;-6.216;2023-04-15T03:36:40;101610.69;;;7.68;100.00
42591;BME280;28218;53.342;-6.216;2023-04-15T03:39:08;101608.31;;;7.65;100.00
42591;BME280;28218;53.342;-6.216;2023-04-15T03:41:36;101608.31;;;7.65;100.00
42591;BME280;28218;53.342;-6.216;2023-04-15T03:44:04;101609.97;;;7.66;100.00
42591;BME280;28218;53.342;-6.216;2023-04-15T03:46:34;101609.28;;;7.64;100.00
42591;BME280;28218;53.342;-6.216;2023-04-15T03:49:05;101607.47;;;7.64;100.00
42591;BME280;28218;53.342;-6.216;2023-04-15T03:51:33;101612.97;;;7.61;100.00
42591;BME280;28218;53.342;-6.216;2023-04-15T03:54:02;101627.19;;;7.59;100.00
42591;BME280;28218;53.342;-6.216;2023-04-15T03:56:30;101633.41;;;7.58;100.00
42591;BME280;28218;53.342;-6.216;2023-04-15T03:58:58;101639.56;;;7.57;100.00
42591;BME280;28218;53.342;-6.216;2023-04-15T04:01:27;101636.94;;;7.57;100.00
42591;BME280;28218;53.342;-6.216;2023-04-15T04:03:57;101640.53;;;7.56;100.00
42591;BME280;28218;53.342;-6.216;2023-04-15T04:06:25;101638.50;;;7.59;100.00
42591;BME280;28218;53.342;-6.216;2023-04-15T04:08:53;101631.72;;;7.57;100.00
42591;BME280;28218;53.342;-6.216;2023-04-15T04:11:22;101636.41;;;7.53;100.00
42591;BME280;28218;53.342;-6.216;2023-04-15T04:13:50;101637.47;;;7.51;100.00
42591;BME280;28218;53.342;-6.216;2023-04-15T04:16:18;101642.56;;;7.52;100.00
42591;BME280;28218;53.342;-6.216;2023-04-15T04:18:47;101650.34;;;7.54;100.00
42591;BME280;28218;53.342;-6.216;2023-04-15T04:21:17;101648.78;;;7.51;100.00
42591;BME280;28218;53.342;-6.216;2023-04-15T04:23:45;101647.72;;;7.54;100.00
42591;BME280;28218;53.342;-6.216;2023-04-15T04:26:13;101653.19;;;7.51;100.00
42591;BME280;28218;53.342;-6.216;2023-04-15T04:28:41;101656.78;;;7.50;100.00
42591;BME280;28218;53.342;-6.216;2023-04-15T04:31:10;101662.16;;;7.48;100.00
42591;BME280;28218;53.342;-6.216;2023-04-15T04:33:39;101651.78;;;7.47;100.00
42591;BME280;28218;53.342;-6.216;2023-04-15T04:36:07;101653.81;;;7.43;100.00
42591;BME280;28218;53.342;-6.216;2023-04-15T04:38:37;101660.59;;;7.46;100.00
42591;BME280;28218;53.342;-6.216;2023-04-15T04:41:05;101659.53;;;7.48;100.00
42591;BME280;28218;53.342;-6.216;2023-04-15T04:43:33;101661.69;;;7.43;100.00
42591;BME280;28218;53.342;-6.216;2023-04-15T04:46:01;101665.16;;;7.43;100.00
42591;BME280;28218;53.342;-6.216;2023-04-15T04:48:29;101661.94;;;7.40;100.00
42591;BME280;28218;53.342;-6.216;2023-04-15T04:50:58;101672.16;;;7.43;100.00
42591;BME280;28218;53.342;-6.216;2023-04-15T04:53:27;101668.16;;;7.39;100.00
42591;BME280;28218;53.342;-6.216;2023-04-15T04:55:56;101678.50;;;7.40;100.00
42591;BME280;28218;53.342;-6.216;2023-04-15T04:58:25;101676.84;;;7.39;100.00
42591;BME280;28218;53.342;-6.216;2023-04-15T05:00:53;101683.28;;;7.35;100.00
42591;BME280;28218;53.342;-6.216;2023-04-15T05:03:22;101680.06;;;7.32;100.00
42591;BME280;28218;53.342;-6.216;2023-04-15T05:05:50;101676.63;;;7.31;100.00
42591;BME280;28218;53.342;-6.216;2023-04-15T05:08:19;101678.41;;;7.31;100.00
42591;BME280;28218;53.342;-6.216;2023-04-15T05:10:47;101682.00;;;7.30;100.00
42591;BME280;28218;53.342;-6.216;2023-04-15T05:13:16;101688.31;;;7.27;100.00
42591;BME280;28218;53.342;-6.216;2023-04-15T05:15:45;101688.53;;;7.24;100.00
42591;BME280;28218;53.342;-6.216;2023-04-15T05:18:13;101696.53;;;7.23;100.00
42591;BME280;28218;53.342;-6.216;2023-04-15T05:20:42;101695.72;;;7.22;100.00
42591;BME280;28218;53.342;-6.216;2023-04-15T05:23:10;101707.84;;;7.23;100.00
42591;BME280;28218;53.342;-6.216;2023-04-15T05:25:38;101712.13;;;7.24;100.00
42591;BME280;28218;53.342;-6.216;2023-04-15T05:28:07;101714.91;;;7.23;100.00
42591;BME280;28218;53.342;-6.216;2023-04-15T05:30:37;101720.88;;;7.25;100.00
42591;BME280;28218;53.342;-6.216;2023-04-15T05:33:05;101726.22;;;7.23;100.00
42591;BME280;28218;53.342;-6.216;2023-04-15T05:35:33;101729.78;;;7.22;100.00
42591;BME280;28218;53.342;-6.216;2023-04-15T05:38:01;101733.13;;;7.24;100.00
42591;BME280;28218;53.342;-6.216;2023-04-15T05:40:30;101742.66;;;7.25;100.00
42591;BME280;28218;53.342;-6.216;2023-04-15T05:42:58;101742.53;;;7.27;100.00
42591;BME280;28218;53.342;-6.216;2023-04-15T05:45:26;101745.84;;;7.29;100.00
42591;BME280;28218;53.342;-6.216;2023-04-15T05:47:56;101745.97;;;7.27;100.00
42591;BME280;28218;53.342;-6.216;2023-04-15T05:50:24;101747.66;;;7.28;100.00
42591;BME280;28218;53.342;-6.216;2023-04-15T05:52:53;101756.47;;;7.27;100.00
42591;BME280;28218;53.342;-6.216;2023-04-15T05:55:21;101759.94;;;7.28;100.00
42591;BME280;28218;53.342;-6.216;2023-04-15T05:57:49;101759.44;;;7.34;100.00
42591;BME280;28218;53.342;-6.216;2023-04-15T06:00:18;101759.31;;;7.35;100.00
42591;BME280;28218;53.342;-6.216;2023-04-15T06:02:47;101760.03;;;7.37;100.00
42591;BME280;28218;53.342;-6.216;2023-04-15T06:05:17;101770.66;;;7.36;100.00
42591;BME280;28218;53.342;-6.216;2023-04-15T06:07:45;101778.66;;;7.34;100.00
42591;BME280;28218;53.342;-6.216;2023-04-15T06:10:14;101783.63;;;7.37;100.00
42591;BME280;28218;53.342;-6.216;2023-04-15T06:12:42;101784.34;;;7.39;100.00
42591;BME280;28218;53.342;-6.216;2023-04-15T06:15:11;101794.59;;;7.42;100.00
42591;BME280;28218;53.342;-6.216;2023-04-15T06:17:39;101792.09;;;7.41;100.00
42591;BME280;28218;53.342;-6.216;2023-04-15T06:20:08;101799.13;;;7.40;100.00
42591;BME280;28218;53.342;-6.216;2023-04-15T06:22:38;101801.63;;;7.42;100.00
42591;BME280;28218;53.342;-6.216;2023-04-15T06:25:07;101803.41;;;7.41;100.00
42591;BME280;28218;53.342;-6.216;2023-04-15T06:27:35;101805.81;;;7.45;100.00
42591;BME280;28218;53.342;-6.216;2023-04-15T06:30:04;101811.75;;;7.47;100.00
42591;BME280;28218;53.342;-6.216;2023-04-15T06:32:33;101816.88;;;7.48;100.00
42591;BME280;28218;53.342;-6.216;2023-04-15T06:35:01;101817.72;;;7.49;100.00
42591;BME280;28218;53.342;-6.216;2023-04-15T06:37:29;101828.91;;;7.51;100.00
42591;BME280;28218;53.342;-6.216;2023-04-15T06:39:59;101828.69;;;7.54;100.00
42591;BME280;28218;53.342;-6.216;2023-04-15T06:42:27;101828.41;;;7.57;100.00
42591;BME280;28218;53.342;-6.216;2023-04-15T06:44:55;101832.00;;;7.56;100.00
42591;BME280;28218;53.342;-6.216;2023-04-15T06:47:23;101828.41;;;7.57;100.00
42591;BME280;28218;53.342;-6.216;2023-04-15T06:49:52;101831.78;;;7.59;100.00
42591;BME280;28218;53.342;-6.216;2023-04-15T06:52:20;101843.69;;;7.63;100.00
42591;BME280;28218;53.342;-6.216;2023-04-15T06:54:48;101841.91;;;7.63;100.00
42591;BME280;28218;53.342;-6.216;2023-04-15T06:57:18;101845.94;;;7.67;100.00
42591;BME280;28218;53.342;-6.216;2023-04-15T06:59:46;101837.25;;;7.67;100.00
42591;BME280;28218;53.342;-6.216;2023-04-15T07:02:14;101838.91;;;7.68;100.00
42591;BME280;28218;53.342;-6.216;2023-04-15T07:04:43;101840.34;;;7.72;100.00
42591;BME280;28218;53.342;-6.216;2023-04-15T07:07:11;101853.78;;;7.79;100.00
42591;BME280;28218;53.342;-6.216;2023-04-15T07:09:39;101857.00;;;7.82;100.00
42591;BME280;28218;53.342;-6.216;2023-04-15T07:12:07;101863.91;;;7.83;100.00
42591;BME280;28218;53.342;-6.216;2023-04-15T07:14:37;101863.56;;;7.88;100.00
42591;BME280;28218;53.342;-6.216;2023-04-15T07:17:05;101868.44;;;7.92;100.00
42591;BME280;28218;53.342;-6.216;2023-04-15T07:19:34;101867.22;;;7.97;100.00
42591;BME280;28218;53.342;-6.216;2023-04-15T07:22:02;101874.00;;;7.99;100.00
42591;BME280;28218;53.342;-6.216;2023-04-15T07:24:31;101871.03;;;8.04;100.00
42591;BME280;28218;53.342;-6.216;2023-04-15T07:26:59;101880.78;;;8.13;100.00
42591;BME280;28218;53.342;-6.216;2023-04-15T07:29:27;101881.97;;;8.20;100.00
42591;BME280;28218;53.342;-6.216;2023-04-15T07:31:56;101891.00;;;8.27;100.00
42591;BME280;28218;53.342;-6.216;2023-04-15T07:34:25;101895.44;;;8.38;100.00
42591;BME280;28218;53.342;-6.216;2023-04-15T07:36:53;101894.41;;;8.50;100.00
42591;BME280;28218;53.342;-6.216;2023-04-15T07:39:21;101901.41;;;8.61;100.00
42591;BME280;28218;53.342;-6.216;2023-04-15T07:41:50;101899.44;;;8.74;100.00
42591;BME280;28218;53.342;-6.216;2023-04-15T07:44:18;101903.81;;;8.85;100.00
42591;BME280;28218;53.342;-6.216;2023-04-15T07:46:46;101915.91;;;8.97;100.00
42591;BME280;28218;53.342;-6.216;2023-04-15T07:49:16;101918.50;;;9.08;100.00
42591;BME280;28218;53.342;-6.216;2023-04-15T07:51:45;101923.81;;;9.18;100.00
42591;BME280;28218;53.342;-6.216;2023-04-15T07:54:13;101924.31;;;9.33;100.00
42591;BME280;28218;53.342;-6.216;2023-04-15T07:56:41;101926.84;;;9.44;100.00
42591;BME280;28218;53.342;-6.216;2023-04-15T07:59:09;101919.97;;;9.53;100.00
42591;BME280;28218;53.342;-6.216;2023-04-15T08:01:38;101923.88;;;9.58;100.00
42591;BME280;28218;53.342;-6.216;2023-04-15T08:04:07;101932.19;;;9.63;100.00
42591;BME280;28218;53.342;-6.216;2023-04-15T08:06:36;101929.75;;;9.71;100.00
42591;BME280;28218;53.342;-6.216;2023-04-15T08:09:05;101923.94;;;9.78;100.00
42591;BME280;28218;53.342;-6.216;2023-04-15T08:11:34;101927.00;;;9.83;100.00
42591;BME280;28218;53.342;-6.216;2023-04-15T08:14:02;101930.06;;;9.88;100.00
42591;BME280;28218;53.342;-6.216;2023-04-15T08:16:30;101925.09;;;9.94;100.00
42591;BME280;28218;53.342;-6.216;2023-04-15T08:18:59;101927.91;;;10.03;100.00
42591;BME280;28218;53.342;-6.216;2023-04-15T08:21:27;101914.44;;;10.06;100.00
42591;BME280;28218;53.342;-6.216;2023-04-15T08:23:58;101925.16;;;10.14;100.00
42591;BME280;28218;53.342;-6.216;2023-04-15T08:26:27;101927.38;;;10.18;100.00
42591;BME280;28218;53.342;-6.216;2023-04-15T08:28:55;101927.69;;;10.25;100.00
42591;BME280;28218;53.342;-6.216;2023-04-15T08:31:25;101932.53;;;10.30;100.00
42591;BME280;28218;53.342;-6.216;2023-04-15T08:33:55;101936.06;;;10.40;100.00
42591;BME280;28218;53.342;-6.216;2023-04-15T08:36:24;101931.72;;;10.48;100.00
42591;BME280;28218;53.342;-6.216;2023-04-15T08:38:52;101931.19;;;10.55;100.00
42591;BME280;28218;53.342;-6.216;2023-04-15T08:41:23;101941.19;;;10.61;100.00
42591;BME280;28218;53.342;-6.216;2023-04-15T08:43:53;101944.91;;;10.68;100.00
42591;BME280;28218;53.342;-6.216;2023-04-15T08:46:22;101949.66;;;10.74;100.00
42591;BME280;28218;53.342;-6.216;2023-04-15T08:48:51;101949.22;;;10.79;100.00
42591;BME280;28218;53.342;-6.216;2023-04-15T08:51:24;101955.19;;;10.81;100.00
42591;BME280;28218;53.342;-6.216;2023-04-15T08:53:53;101967.53;;;10.80;100.00
42591;BME280;28218;53.342;-6.216;2023-04-15T08:56:24;101966.28;;;10.84;100.00
42591;BME280;28218;53.342;-6.216;2023-04-15T08:58:53;101964.63;;;10.83;100.00
42591;BME280;28218;53.342;-6.216;2023-04-15T09:01:22;101965.31;;;10.75;100.00
42591;BME280;28218;53.342;-6.216;2023-04-15T09:03:51;101980.31;;;10.75;100.00
42591;BME280;28218;53.342;-6.216;2023-04-15T09:06:20;101972.41;;;10.75;100.00
42591;BME280;28218;53.342;-6.216;2023-04-15T09:08:49;101975.44;;;10.80;100.00
42591;BME280;28218;53.342;-6.216;2023-04-15T09:11:17;101975.84;;;10.85;100.00
42591;BME280;28218;53.342;-6.216;2023-04-15T09:13:47;101983.34;;;10.99;100.00
42591;BME280;28218;53.342;-6.216;2023-04-15T09:16:16;101979.59;;;11.12;100.00
42591;BME280;28218;53.342;-6.216;2023-04-15T09:18:44;101984.03;;;11.21;100.00
42591;BME280;28218;53.342;-6.216;2023-04-15T09:21:14;101983.19;;;11.30;100.00
42591;BME280;28218;53.342;-6.216;2023-04-15T09:23:54;101994.81;;;11.37;100.00
42591;BME280;28218;53.342;-6.216;2023-04-15T09:26:32;101990.66;;;11.44;100.00
42591;BME280;28218;53.342;-6.216;2023-04-15T09:29:07;102003.66;;;11.56;100.00
42591;BME280;28218;53.342;-6.216;2023-04-15T09:31:36;101996.97;;;11.61;100.00
42591;BME280;28218;53.342;-6.216;2023-04-15T09:34:05;102004.19;;;11.69;100.00
42591;BME280;28218;53.342;-6.216;2023-04-15T09:36:52;102005.97;;;11.78;100.00
42591;BME280;28218;53.342;-6.216;2023-04-15T09:39:20;102011.41;;;11.86;100.00
42591;BME280;28218;53.342;-6.216;2023-04-15T09:42:04;102014.94;;;11.95;100.00
42591;BME280;28218;53.342;-6.216;2023-04-15T09:44:35;102011.31;;;12.06;100.00
42591;BME280;28218;53.342;-6.216;2023-04-15T09:47:03;102013.75;;;12.17;100.00
42591;BME280;28218;53.342;-6.216;2023-04-15T09:49:31;102014.97;;;12.22;100.00
42591;BME280;28218;53.342;-6.216;2023-04-15T09:52:00;102009.41;;;12.25;100.00
42591;BME280;28218;53.342;-6.216;2023-04-15T09:54:33;102003.97;;;12.27;100.00
42591;BME280;28218;53.342;-6.216;2023-04-15T09:57:06;102008.94;;;12.30;100.00
42591;BME280;28218;53.342;-6.216;2023-04-15T09:59:37;102022.84;;;12.32;100.00
42591;BME280;28218;53.342;-6.216;2023-04-15T10:02:05;102025.75;;;12.39;100.00
42591;BME280;28218;53.342;-6.216;2023-04-15T10:04:35;102022.22;;;12.48;100.00
42591;BME280;28218;53.342;-6.216;2023-04-15T10:07:06;102023.41;;;12.53;100.00
42591;BME280;28218;53.342;-6.216;2023-04-15T10:09:36;102021.31;;;12.57;100.00
42591;BME280;28218;53.342;-6.216;2023-04-15T10:12:05;102022.97;;;12.58;100.00
42591;BME280;28218;53.342;-6.216;2023-04-15T10:14:34;102020.16;;;12.60;100.00
42591;BME280;28218;53.342;-6.216;2023-04-15T10:17:06;102024.19;;;12.64;100.00
42591;BME280;28218;53.342;-6.216;2023-04-15T10:19:38;102027.53;;;12.66;100.00
42591;BME280;28218;53.342;-6.216;2023-04-15T10:22:07;102025.72;;;12.66;100.00
42591;BME280;28218;53.342;-6.216;2023-04-15T10:24:37;102028.19;;;12.68;100.00
42591;BME280;28218;53.342;-6.216;2023-04-15T10:27:06;102024.56;;;12.69;100.00
42591;BME280;28218;53.342;-6.216;2023-04-15T10:29:35;102021.38;;;12.65;100.00
42591;BME280;28218;53.342;-6.216;2023-04-15T10:32:04;102031.50;;;12.70;100.00
42591;BME280;28218;53.342;-6.216;2023-04-15T10:34:33;102028.88;;;12.70;100.00
42591;BME280;28218;53.342;-6.216;2023-04-15T10:37:03;102029.03;;;12.68;100.00
42591;BME280;28218;53.342;-6.216;2023-04-15T10:39:39;102036.72;;;12.62;100.00
42591;BME280;28218;53.342;-6.216;2023-04-15T10:42:09;102035.47;;;12.66;100.00
42591;BME280;28218;53.342;-6.216;2023-04-15T10:44:38;102036.56;;;12.63;100.00
42591;BME280;28218;53.342;-6.216;2023-04-15T10:47:13;102029.84;;;12.69;100.00
42591;BME280;28218;53.342;-6.216;2023-04-15T10:49:47;102037.72;;;12.78;100.00
42591;BME280;28218;53.342;-6.216;2023-04-15T10:52:17;102029.69;;;12.88;100.00
42591;BME280;28218;53.342;-6.216;2023-04-15T10:54:45;102030.16;;;13.01;100.00
42591;BME280;28218;53.342;-6.216;2023-04-15T10:57:16;102043.19;;;13.13;100.00
42591;BME280;28218;53.342;-6.216;2023-04-15T11:00:09;102044.97;;;13.30;100.00
42591;BME280;28218;53.342;-6.216;2023-04-15T11:02:40;102036.19;;;13.47;100.00
42591;BME280;28218;53.342;-6.216;2023-04-15T11:05:11;102036.91;;;13.58;100.00
42591;BME280;28218;53.342;-6.216;2023-04-15T11:07:46;102047.00;;;13.80;100.00
42591;BME280;28218;53.342;-6.216;2023-04-15T11:13:19;102046.03;;;13.89;100.00
42591;BME280;28218;53.342;-6.216;2023-04-15T11:15:49;102048.06;;;13.95;100.00
42591;BME280;28218;53.342;-6.216;2023-04-15T11:18:19;102042.34;;;14.08;100.00
42591;BME280;28218;53.342;-6.216;2023-04-15T11:20:50;102043.81;;;14.11;100.00
42591;BME280;28218;53.342;-6.216;2023-04-15T11:23:27;102046.16;;;14.14;100.00
42591;BME280;28218;53.342;-6.216;2023-04-15T11:25:56;102038.50;;;14.11;100.00
42591;BME280;28218;53.342;-6.216;2023-04-15T11:28:26;102038.22;;;14.14;100.00
42591;BME280;28218;53.342;-6.216;2023-04-15T11:30:55;102040.56;;;14.17;100.00
42591;BME280;28218;53.342;-6.216;2023-04-15T11:33:24;102034.03;;;14.11;100.00
42591;BME280;28218;53.342;-6.216;2023-04-15T11:35:54;102039.81;;;14.06;100.00
42591;BME280;28218;53.342;-6.216;2023-04-15T11:38:22;102044.16;;;14.16;100.00
42591;BME280;28218;53.342;-6.216;2023-04-15T11:40:50;102045.56;;;14.28;100.00
42591;BME280;28218;53.342;-6.216;2023-04-15T11:43:20;102041.63;;;14.40;100.00
42591;BME280;28218;53.342;-6.216;2023-04-15T11:45:53;102040.97;;;14.46;100.00
42591;BME280;28218;53.342;-6.216;2023-04-15T11:48:23;102035.66;;;14.46;100.00
42591;BME280;28218;53.342;-6.216;2023-04-15T11:50:57;102041.34;;;14.51;100.00
42591;BME280;28218;53.342;-6.216;2023-04-15T11:53:36;102054.88;;;14.40;100.00
42591;BME280;28218;53.342;-6.216;2023-04-15T11:56:06;102054.69;;;14.33;100.00
42591;BME280;28218;53.342;-6.216;2023-04-15T11:58:36;102055.34;;;14.27;100.00
42591;BME280;28218;53.342;-6.216;2023-04-15T12:01:05;102054.03;;;14.31;100.00
42591;BME280;28218;53.342;-6.216;2023-04-15T12:03:37;102053.50;;;14.28;100.00
42591;BME280;28218;53.342;-6.216;2023-04-15T12:06:13;102045.22;;;14.23;100.00
42591;BME280;28218;53.342;-6.216;2023-04-15T12:11:44;102045.81;;;14.09;100.00
42591;BME280;28218;53.342;-6.216;2023-04-15T12:14:17;102045.94;;;13.99;100.00
42591;BME280;28218;53.342;-6.216;2023-04-15T12:16:46;102041.94;;;13.95;100.00
42591;BME280;28218;53.342;-6.216;2023-04-15T12:19:22;102049.81;;;13.87;100.00
42591;BME280;28218;53.342;-6.216;2023-04-15T12:21:57;102042.00;;;13.77;100.00
42591;BME280;28218;53.342;-6.216;2023-04-15T12:24:26;102039.34;;;13.77;100.00
42591;BME280;28218;53.342;-6.216;2023-04-15T12:26:56;102036.16;;;13.73;100.00
42591;BME280;28218;53.342;-6.216;2023-04-15T12:29:26;102041.00;;;13.78;100.00
42591;BME280;28218;53.342;-6.216;2023-04-15T12:31:56;102036.50;;;13.70;100.00
42591;BME280;28218;53.342;-6.216;2023-04-15T12:34:26;102047.81;;;13.54;100.00
42591;BME280;28218;53.342;-6.216;2023-04-15T12:36:57;102045.81;;;13.30;100.00
42591;BME280;28218;53.342;-6.216;2023-04-15T12:39:27;102037.38;;;13.27;100.00
42591;BME280;28218;53.342;-6.216;2023-04-15T12:41:57;102044.31;;;13.28;100.00
42591;BME280;28218;53.342;-6.216;2023-04-15T12:44:26;102040.38;;;13.32;100.00
42591;BME280;28218;53.342;-6.216;2023-04-15T12:46:55;102039.75;;;13.38;100.00
42591;BME280;28218;53.342;-6.216;2023-04-15T12:49:23;102038.13;;;13.45;100.00
42591;BME280;28218;53.342;-6.216;2023-04-15T12:51:54;102045.41;;;13.43;100.00